sensor_id;sensor_type;location;lat;lon;timestamp;temperature;humidity
16521;DHT22;8373;48.110;11.522;2023-01-31T00:01:08;3.70;81.40
16521;DHT22;8373;48.110;11.522;2023-01-31T00:03:37;3.70;81.50
16521;DHT22;8373;48.110;11.522;2023-01-31T00:06:18;3.70;81.50
16521;DHT22;8373;48.110;11.522;2023-01-31T00:08:46;3.70;81.70
16521;DHT22;8373;48.110;11.522;2023-01-31T00:11:15;3.70;81.70
16521;DHT22;8373;48.110;11.522;2023-01-31T00:13:43;3.80;81.60
16521;DHT22;8373;48.110;11.522;2023-01-31T00:16:11;3.80;81.50
16521;DHT22;8373;48.110;11.522;2023-01-31T00:18:40;3.80;81.60
16521;DHT22;8373;48.110;11.522;2023-01-31T00:21:09;3.80;81.60
16521;DHT22;8373;48.110;11.522;2023-01-31T00:23:37;3.80;81.40
16521;DHT22;8373;48.110;11.522;2023-01-31T00:26:23;3.90;81.50
16521;DHT22;8373;48.110;11.522;2023-01-31T00:28:52;3.80;81.40
16521;DHT22;8373;48.110;11.522;2023-01-31T00:31:20;3.70;81.30
16521;DHT22;8373;48.110;11.522;2023-01-31T00:33:49;3.70;81.50
16521;DHT22;8373;48.110;11.522;2023-01-31T00:36:19;3.70;81.80
16521;DHT22;8373;48.110;11.522;2023-01-31T00:38:47;3.60;81.80
16521;DHT22;8373;48.110;11.522;2023-01-31T00:41:14;3.60;82.10
16521;DHT22;8373;48.110;11.522;2023-01-31T00:43:41;3.60;82.20
16521;DHT22;8373;48.110;11.522;2023-01-31T00:46:08;3.70;82.40
16521;DHT22;8373;48.110;11.522;2023-01-31T00:48:35;3.70;82.30
16521;DHT22;8373;48.110;11.522;2023-01-31T00:51:04;3.60;82.10
16521;DHT22;8373;48.110;11.522;2023-01-31T00:53:32;3.60;82.40
16521;DHT22;8373;48.110;11.522;2023-01-31T00:56:02;3.60;83.30
16521;DHT22;8373;48.110;11.522;2023-01-31T00:58:29;3.50;82.60
16521;DHT22;8373;48.110;11.522;2023-01-31T01:01:04;3.50;83.00
16521;DHT22;8373;48.110;11.522;2023-01-31T01:03:32;3.50;83.10
16521;DHT22;8373;48.110;11.522;2023-01-31T01:05:59;3.40;83.10
16521;DHT22;8373;48.110;11.522;2023-01-31T01:08:28;3.50;83.40
16521;DHT22;8373;48.110;11.522;2023-01-31T01:10:55;3.40;83.20
16521;DHT22;8373;48.110;11.522;2023-01-31T01:13:22;3.40;83.30
16521;DHT22;8373;48.110;11.522;2023-01-31T01:15:49;3.50;83.50
16521;DHT22;8373;48.110;11.522;2023-01-31T01:18:16;3.50;83.20
16521;DHT22;8373;48.110;11.522;2023-01-31T01:20:43;3.50;83.10
16521;DHT22;8373;48.110;11.522;2023-01-31T01:23:10;3.50;83.10
16521;DHT22;8373;48.110;11.522;2023-01-31T01:25:53;3.60;83.10
16521;DHT22;8373;48.110;11.522;2023-01-31T01:28:20;3.70;83.00
16521;DHT22;8373;48.110;11.522;2023-01-31T01:30:47;3.70;82.60
16521;DHT22;8373;48.110;11.522;2023-01-31T01:33:14;3.70;82.50
16521;DHT22;8373;48.110;11.522;2023-01-31T01:35:41;3.60;82.30
16521;DHT22;8373;48.110;11.522;2023-01-31T01:38:08;3.60;82.30
16521;DHT22;8373;48.110;11.522;2023-01-31T01:40:37;3.60;82.50
16521;DHT22;8373;48.110;11.522;2023-01-31T01:43:09;3.70;82.30
16521;DHT22;8373;48.110;11.522;2023-01-31T01:45:37;3.70;82.10
16521;DHT22;8373;48.110;11.522;2023-01-31T01:48:06;3.60;82.00
16521;DHT22;8373;48.110;11.522;2023-01-31T01:50:37;3.50;82.10
16521;DHT22;8373;48.110;11.522;2023-01-31T01:53:08;3.60;82.40
16521;DHT22;8373;48.110;11.522;2023-01-31T01:55:38;3.50;82.40
16521;DHT22;8373;48.110;11.522;2023-01-31T01:58:10;3.60;82.50
16521;DHT22;8373;48.110;11.522;2023-01-31T02:00:39;3.60;83.20
16521;DHT22;8373;48.110;11.522;2023-01-31T02:03:06;3.60;82.60
16521;DHT22;8373;48.110;11.522;2023-01-31T02:05:37;3.60;82.40
16521;DHT22;8373;48.110;11.522;2023-01-31T02:08:05;3.50;82.30
16521;DHT22;8373;48.110;11.522;2023-01-31T02:10:40;3.50;82.60
16521;DHT22;8373;48.110;11.522;2023-01-31T02:13:10;3.40;82.70
16521;DHT22;8373;48.110;11.522;2023-01-31T02:15:37;3.40;83.00
16521;DHT22;8373;48.110;11.522;2023-01-31T02:18:05;3.40;83.30
16521;DHT22;8373;48.110;11.522;2023-01-31T02:27:05;3.50;83.20
16521;DHT22;8373;48.110;11.522;2023-01-31T02:29:58;3.60;83.10
16521;DHT22;8373;48.110;11.522;2023-01-31T02:32:44;3.60;82.90
16521;DHT22;8373;48.110;11.522;2023-01-31T02:35:23;3.70;83.00
16521;DHT22;8373;48.110;11.522;2023-01-31T02:38:00;3.60;82.50
16521;DHT22;8373;48.110;11.522;2023-01-31T02:40:36;3.60;82.40
16521;DHT22;8373;48.110;11.522;2023-01-31T02:43:09;3.50;82.50
16521;DHT22;8373;48.110;11.522;2023-01-31T02:45:44;3.50;82.60
16521;DHT22;8373;48.110;11.522;2023-01-31T02:48:21;3.50;82.40
16521;DHT22;8373;48.110;11.522;2023-01-31T02:50:58;3.40;82.40
16521;DHT22;8373;48.110;11.522;2023-01-31T02:53:30;3.30;82.60
16521;DHT22;8373;48.110;11.522;2023-01-31T02:56:02;3.30;83.00
16521;DHT22;8373;48.110;11.522;2023-01-31T02:58:52;3.40;83.00
16521;DHT22;8373;48.110;11.522;2023-01-31T03:01:23;3.30;82.60
16521;DHT22;8373;48.110;11.522;2023-01-31T03:03:57;3.30;82.70
16521;DHT22;8373;48.110;11.522;2023-01-31T03:06:49;3.30;82.80
16521;DHT22;8373;48.110;11.522;2023-01-31T03:09:32;3.30;82.90
16521;DHT22;8373;48.110;11.522;2023-01-31T03:12:17;3.30;82.90
16521;DHT22;8373;48.110;11.522;2023-01-31T03:14:53;3.30;83.10
16521;DHT22;8373;48.110;11.522;2023-01-31T03:17:31;3.10;82.90
16521;DHT22;8373;48.110;11.522;2023-01-31T03:20:08;3.20;83.20
16521;DHT22;8373;48.110;11.522;2023-01-31T03:22:37;3.20;83.00
16521;DHT22;8373;48.110;11.522;2023-01-31T03:25:08;3.20;83.00
16521;DHT22;8373;48.110;11.522;2023-01-31T03:27:36;3.10;83.10
16521;DHT22;8373;48.110;11.522;2023-01-31T03:30:08;3.20;83.40
16521;DHT22;8373;48.110;11.522;2023-01-31T03:32:42;3.20;83.10
16521;DHT22;8373;48.110;11.522;2023-01-31T03:35:12;3.10;83.10
16521;DHT22;8373;48.110;11.522;2023-01-31T03:37:45;3.10;83.10
16521;DHT22;8373;48.110;11.522;2023-01-31T03:40:18;3.20;83.20
16521;DHT22;8373;48.110;11.522;2023-01-31T03:42:51;3.20;83.90
16521;DHT22;8373;48.110;11.522;2023-01-31T03:45:26;3.10;82.80
16521;DHT22;8373;48.110;11.522;2023-01-31T03:47:56;3.00;82.90
16521;DHT22;8373;48.110;11.522;2023-01-31T03:50:29;3.00;83.30
16521;DHT22;8373;48.110;11.522;2023-01-31T03:53:03;2.90;83.30
16521;DHT22;8373;48.110;11.522;2023-01-31T03:55:34;3.00;83.60
16521;DHT22;8373;48.110;11.522;2023-01-31T03:58:05;3.10;83.40
16521;DHT22;8373;48.110;11.522;2023-01-31T04:00:35;3.10;83.90
16521;DHT22;8373;48.110;11.522;2023-01-31T04:03:11;3.10;82.90
16521;DHT22;8373;48.110;11.522;2023-01-31T04:05:41;3.10;82.70
16521;DHT22;8373;48.110;11.522;2023-01-31T04:08:10;3.00;82.50
16521;DHT22;8373;48.110;11.522;2023-01-31T04:10:37;2.90;82.60
16521;DHT22;8373;48.110;11.522;2023-01-31T04:13:04;2.90;83.00
16521;DHT22;8373;48.110;11.522;2023-01-31T04:15:31;2.90;83.20
16521;DHT22;8373;48.110;11.522;2023-01-31T04:17:57;2.90;83.30
16521;DHT22;8373;48.110;11.522;2023-01-31T04:20:24;2.90;83.30
16521;DHT22;8373;48.110;11.522;2023-01-31T04:22:53;2.80;83.20
16521;DHT22;8373;48.110;11.522;2023-01-31T04:25:20;2.80;83.40
16521;DHT22;8373;48.110;11.522;2023-01-31T04:27:47;2.80;83.50
16521;DHT22;8373;48.110;11.522;2023-01-31T04:30:14;2.90;83.50
16521;DHT22;8373;48.110;11.522;2023-01-31T04:32:41;2.90;83.30
16521;DHT22;8373;48.110;11.522;2023-01-31T04:35:08;2.90;83.20
16521;DHT22;8373;48.110;11.522;2023-01-31T04:37:35;2.90;82.90
16521;DHT22;8373;48.110;11.522;2023-01-31T04:40:04;2.80;82.80
16521;DHT22;8373;48.110;11.522;2023-01-31T04:42:31;2.70;82.90
16521;DHT22;8373;48.110;11.522;2023-01-31T04:44:58;2.60;83.10
16521;DHT22;8373;48.110;11.522;2023-01-31T04:47:25;2.60;83.40
16521;DHT22;8373;48.110;11.522;2023-01-31T04:49:52;2.60;83.60
16521;DHT22;8373;48.110;11.522;2023-01-31T04:52:19;2.60;83.70
16521;DHT22;8373;48.110;11.522;2023-01-31T04:54:46;2.70;83.80
16521;DHT22;8373;48.110;11.522;2023-01-31T04:57:14;2.70;83.60
16521;DHT22;8373;48.110;11.522;2023-01-31T04:59:41;2.70;83.50
16521;DHT22;8373;48.110;11.522;2023-01-31T05:02:08;2.80;83.50
16521;DHT22;8373;48.110;11.522;2023-01-31T05:04:35;2.80;83.20
16521;DHT22;8373;48.110;11.522;2023-01-31T05:07:02;2.90;83.20
16521;DHT22;8373;48.110;11.522;2023-01-31T05:09:29;3.00;83.00
16521;DHT22;8373;48.110;11.522;2023-01-31T05:11:56;2.90;82.60
16521;DHT22;8373;48.110;11.522;2023-01-31T05:14:24;2.90;82.50
16521;DHT22;8373;48.110;11.522;2023-01-31T05:16:51;2.90;82.60
16521;DHT22;8373;48.110;11.522;2023-01-31T05:19:18;2.90;82.40
16521;DHT22;8373;48.110;11.522;2023-01-31T05:21:45;2.90;82.60
16521;DHT22;8373;48.110;11.522;2023-01-31T05:24:24;2.80;82.50
16521;DHT22;8373;48.110;11.522;2023-01-31T05:26:52;2.90;82.70
16521;DHT22;8373;48.110;11.522;2023-01-31T05:29:25;2.90;82.70
16521;DHT22;8373;48.110;11.522;2023-01-31T05:31:53;2.90;82.30
16521;DHT22;8373;48.110;11.522;2023-01-31T05:34:20;2.80;82.30
16521;DHT22;8373;48.110;11.522;2023-01-31T05:36:48;2.80;82.40
16521;DHT22;8373;48.110;11.522;2023-01-31T05:39:15;2.80;82.50
16521;DHT22;8373;48.110;11.522;2023-01-31T05:41:42;2.80;82.60
16521;DHT22;8373;48.110;11.522;2023-01-31T05:44:09;2.80;82.60
16521;DHT22;8373;48.110;11.522;2023-01-31T05:46:38;2.80;82.50
16521;DHT22;8373;48.110;11.522;2023-01-31T05:49:05;2.70;82.30
16521;DHT22;8373;48.110;11.522;2023-01-31T05:51:32;2.70;82.40
16521;DHT22;8373;48.110;11.522;2023-01-31T05:53:59;2.70;82.30
16521;DHT22;8373;48.110;11.522;2023-01-31T05:56:26;2.70;82.50
16521;DHT22;8373;48.110;11.522;2023-01-31T05:58:53;2.60;82.60
16521;DHT22;8373;48.110;11.522;2023-01-31T06:01:21;2.60;82.60
16521;DHT22;8373;48.110;11.522;2023-01-31T06:03:50;2.60;82.80
16521;DHT22;8373;48.110;11.522;2023-01-31T06:06:17;2.70;83.00
16521;DHT22;8373;48.110;11.522;2023-01-31T06:08:46;2.70;82.60
16521;DHT22;8373;48.110;11.522;2023-01-31T06:11:13;2.80;82.40
16521;DHT22;8373;48.110;11.522;2023-01-31T06:13:41;2.70;82.10
16521;DHT22;8373;48.110;11.522;2023-01-31T06:16:09;2.70;82.10
16521;DHT22;8373;48.110;11.522;2023-01-31T06:18:36;2.60;81.90
16521;DHT22;8373;48.110;11.522;2023-01-31T06:21:05;2.70;82.20
16521;DHT22;8373;48.110;11.522;2023-01-31T06:23:32;2.60;82.10
16521;DHT22;8373;48.110;11.522;2023-01-31T06:26:00;2.60;82.10
16521;DHT22;8373;48.110;11.522;2023-01-31T06:28:27;2.60;82.20
16521;DHT22;8373;48.110;11.522;2023-01-31T06:30:54;2.60;82.20
16521;DHT22;8373;48.110;11.522;2023-01-31T06:33:21;2.50;82.10
16521;DHT22;8373;48.110;11.522;2023-01-31T06:35:48;2.60;82.20
16521;DHT22;8373;48.110;11.522;2023-01-31T06:38:16;2.70;82.10
16521;DHT22;8373;48.110;11.522;2023-01-31T06:40:43;2.80;81.90
16521;DHT22;8373;48.110;11.522;2023-01-31T06:43:10;2.70;81.30
16521;DHT22;8373;48.110;11.522;2023-01-31T06:45:37;2.60;81.30
16521;DHT22;8373;48.110;11.522;2023-01-31T06:48:04;2.50;81.50
16521;DHT22;8373;48.110;11.522;2023-01-31T06:50:31;2.60;81.70
16521;DHT22;8373;48.110;11.522;2023-01-31T06:52:58;2.60;81.70
16521;DHT22;8373;48.110;11.522;2023-01-31T06:55:26;2.60;81.80
16521;DHT22;8373;48.110;11.522;2023-01-31T06:57:53;2.60;81.50
16521;DHT22;8373;48.110;11.522;2023-01-31T07:00:21;2.70;81.20
16521;DHT22;8373;48.110;11.522;2023-01-31T07:02:49;2.60;80.90
16521;DHT22;8373;48.110;11.522;2023-01-31T07:05:17;2.60;80.90
16521;DHT22;8373;48.110;11.522;2023-01-31T07:07:44;2.60;80.70
16521;DHT22;8373;48.110;11.522;2023-01-31T07:10:11;2.50;80.60
16521;DHT22;8373;48.110;11.522;2023-01-31T07:12:40;2.50;80.80
16521;DHT22;8373;48.110;11.522;2023-01-31T07:15:08;2.50;80.90
16521;DHT22;8373;48.110;11.522;2023-01-31T07:17:35;2.50;80.80
16521;DHT22;8373;48.110;11.522;2023-01-31T07:20:03;2.50;80.90
16521;DHT22;8373;48.110;11.522;2023-01-31T07:22:30;2.60;80.90
16521;DHT22;8373;48.110;11.522;2023-01-31T07:24:58;2.60;80.90
16521;DHT22;8373;48.110;11.522;2023-01-31T07:27:25;2.60;80.50
16521;DHT22;8373;48.110;11.522;2023-01-31T07:29:53;2.70;80.40
16521;DHT22;8373;48.110;11.522;2023-01-31T07:32:20;2.70;80.30
16521;DHT22;8373;48.110;11.522;2023-01-31T07:34:47;2.80;80.10
16521;DHT22;8373;48.110;11.522;2023-01-31T07:37:15;2.80;79.80
16521;DHT22;8373;48.110;11.522;2023-01-31T07:39:42;2.80;79.90
16521;DHT22;8373;48.110;11.522;2023-01-31T07:42:09;2.90;79.90
16521;DHT22;8373;48.110;11.522;2023-01-31T07:44:35;3.00;79.50
16521;DHT22;8373;48.110;11.522;2023-01-31T07:47:04;3.10;79.30
16521;DHT22;8373;48.110;11.522;2023-01-31T07:49:40;3.00;78.80
16521;DHT22;8373;48.110;11.522;2023-01-31T07:52:07;3.10;78.80
16521;DHT22;8373;48.110;11.522;2023-01-31T07:54:34;3.00;78.60
16521;DHT22;8373;48.110;11.522;2023-01-31T07:57:01;3.00;78.50
16521;DHT22;8373;48.110;11.522;2023-01-31T07:59:28;3.00;78.60
16521;DHT22;8373;48.110;11.522;2023-01-31T08:01:55;3.00;78.40
16521;DHT22;8373;48.110;11.522;2023-01-31T08:04:41;3.10;78.30
16521;DHT22;8373;48.110;11.522;2023-01-31T08:07:08;3.20;78.00
16521;DHT22;8373;48.110;11.522;2023-01-31T08:09:35;3.20;77.70
16521;DHT22;8373;48.110;11.522;2023-01-31T08:12:04;3.30;77.30
16521;DHT22;8373;48.110;11.522;2023-01-31T08:14:31;3.40;77.10
16521;DHT22;8373;48.110;11.522;2023-01-31T08:16:58;3.30;76.60
16521;DHT22;8373;48.110;11.522;2023-01-31T08:19:25;3.30;76.70
16521;DHT22;8373;48.110;11.522;2023-01-31T08:21:54;3.40;76.70
16521;DHT22;8373;48.110;11.522;2023-01-31T08:24:21;3.50;76.50
16521;DHT22;8373;48.110;11.522;2023-01-31T08:26:48;3.60;76.20
16521;DHT22;8373;48.110;11.522;2023-01-31T08:29:15;3.80;76.10
16521;DHT22;8373;48.110;11.522;2023-01-31T08:31:43;4.00;75.80
16521;DHT22;8373;48.110;11.522;2023-01-31T08:34:10;4.20;74.70
16521;DHT22;8373;48.110;11.522;2023-01-31T08:36:37;4.20;73.70
16521;DHT22;8373;48.110;11.522;2023-01-31T08:39:06;4.10;73.00
16521;DHT22;8373;48.110;11.522;2023-01-31T08:41:34;4.00;73.30
16521;DHT22;8373;48.110;11.522;2023-01-31T08:44:01;3.90;73.70
16521;DHT22;8373;48.110;11.522;2023-01-31T08:46:30;4.00;73.90
16521;DHT22;8373;48.110;11.522;2023-01-31T08:48:58;4.00;73.90
16521;DHT22;8373;48.110;11.522;2023-01-31T08:51:26;4.10;73.60
16521;DHT22;8373;48.110;11.522;2023-01-31T08:53:53;4.40;73.70
16521;DHT22;8373;48.110;11.522;2023-01-31T08:56:22;4.70;72.70
16521;DHT22;8373;48.110;11.522;2023-01-31T08:58:51;5.00;71.80
16521;DHT22;8373;48.110;11.522;2023-01-31T09:01:19;5.30;70.90
16521;DHT22;8373;48.110;11.522;2023-01-31T09:03:47;5.60;69.20
16521;DHT22;8373;48.110;11.522;2023-01-31T09:06:22;5.80;67.60
16521;DHT22;8373;48.110;11.522;2023-01-31T09:08:51;6.00;66.40
16521;DHT22;8373;48.110;11.522;2023-01-31T09:11:18;6.40;65.10
16521;DHT22;8373;48.110;11.522;2023-01-31T09:13:48;6.90;63.90
16521;DHT22;8373;48.110;11.522;2023-01-31T09:16:16;7.30;62.20
16521;DHT22;8373;48.110;11.522;2023-01-31T09:18:43;7.60;60.00
16521;DHT22;8373;48.110;11.522;2023-01-31T09:21:11;7.90;58.80
16521;DHT22;8373;48.110;11.522;2023-01-31T09:23:39;8.30;58.00
16521;DHT22;8373;48.110;11.522;2023-01-31T09:26:07;8.30;56.50
16521;DHT22;8373;48.110;11.522;2023-01-31T09:28:34;8.30;56.50
16521;DHT22;8373;48.110;11.522;2023-01-31T09:31:07;8.60;55.90
16521;DHT22;8373;48.110;11.522;2023-01-31T09:33:34;9.20;55.10
16521;DHT22;8373;48.110;11.522;2023-01-31T09:36:04;9.20;53.00
16521;DHT22;8373;48.110;11.522;2023-01-31T09:38:31;9.10;52.90
16521;DHT22;8373;48.110;11.522;2023-01-31T09:41:00;9.10;52.80
16521;DHT22;8373;48.110;11.522;2023-01-31T09:43:37;9.30;52.80
16521;DHT22;8373;48.110;11.522;2023-01-31T09:46:12;9.50;52.20
16521;DHT22;8373;48.110;11.522;2023-01-31T09:48:43;10.00;51.10
16521;DHT22;8373;48.110;11.522;2023-01-31T09:51:12;9.90;50.80
16521;DHT22;8373;48.110;11.522;2023-01-31T09:53:40;9.70;50.50
16521;DHT22;8373;48.110;11.522;2023-01-31T09:56:21;9.70;51.00
16521;DHT22;8373;48.110;11.522;2023-01-31T09:58:54;9.80;51.10
16521;DHT22;8373;48.110;11.522;2023-01-31T10:01:25;9.60;51.30
16521;DHT22;8373;48.110;11.522;2023-01-31T10:04:08;9.40;51.40
16521;DHT22;8373;48.110;11.522;2023-01-31T10:06:44;9.10;51.70
16521;DHT22;8373;48.110;11.522;2023-01-31T10:09:18;8.90;51.70
16521;DHT22;8373;48.110;11.522;2023-01-31T10:11:48;8.20;51.90
16521;DHT22;8373;48.110;11.522;2023-01-31T10:14:28;7.60;52.50
16521;DHT22;8373;48.110;11.522;2023-01-31T10:17:07;7.30;53.50
16521;DHT22;8373;48.110;11.522;2023-01-31T10:19:42;7.20;54.20
16521;DHT22;8373;48.110;11.522;2023-01-31T10:22:15;6.90;54.10
16521;DHT22;8373;48.110;11.522;2023-01-31T10:24:46;6.70;55.10
16521;DHT22;8373;48.110;11.522;2023-01-31T10:27:20;6.40;55.90
16521;DHT22;8373;48.110;11.522;2023-01-31T10:29:56;6.20;56.50
16521;DHT22;8373;48.110;11.522;2023-01-31T10:32:30;6.10;57.20
16521;DHT22;8373;48.110;11.522;2023-01-31T10:35:03;6.50;57.60
16521;DHT22;8373;48.110;11.522;2023-01-31T10:37:38;6.40;57.00
16521;DHT22;8373;48.110;11.522;2023-01-31T10:40:14;6.30;57.40
16521;DHT22;8373;48.110;11.522;2023-01-31T10:42:47;6.50;58.00
16521;DHT22;8373;48.110;11.522;2023-01-31T10:45:17;6.50;57.70
16521;DHT22;8373;48.110;11.522;2023-01-31T10:47:49;6.30;57.80
16521;DHT22;8373;48.110;11.522;2023-01-31T10:50:18;6.20;58.40
16521;DHT22;8373;48.110;11.522;2023-01-31T10:53:07;6.00;58.70
16521;DHT22;8373;48.110;11.522;2023-01-31T10:55:46;5.80;59.50
16521;DHT22;8373;48.110;11.522;2023-01-31T10:58:17;5.70;59.70
16521;DHT22;8373;48.110;11.522;2023-01-31T11:00:46;5.50;59.90
16521;DHT22;8373;48.110;11.522;2023-01-31T11:03:15;5.30;60.50
16521;DHT22;8373;48.110;11.522;2023-01-31T11:05:46;5.30;61.30
16521;DHT22;8373;48.110;11.522;2023-01-31T11:08:24;5.40;61.60
16521;DHT22;8373;48.110;11.522;2023-01-31T11:10:53;5.40;61.70
16521;DHT22;8373;48.110;11.522;2023-01-31T11:13:20;5.30;61.80
16521;DHT22;8373;48.110;11.522;2023-01-31T11:15:50;5.10;62.10
16521;DHT22;8373;48.110;11.522;2023-01-31T11:18:27;5.00;62.90
16521;DHT22;8373;48.110;11.522;2023-01-31T11:20:55;4.90;63.50
16521;DHT22;8373;48.110;11.522;2023-01-31T11:23:26;4.80;63.70
16521;DHT22;8373;48.110;11.522;2023-01-31T11:25:55;4.70;64.00
16521;DHT22;8373;48.110;11.522;2023-01-31T11:28:26;4.70;64.50
16521;DHT22;8373;48.110;11.522;2023-01-31T11:30:54;4.70;64.80
16521;DHT22;8373;48.110;11.522;2023-01-31T11:33:42;4.70;65.10
16521;DHT22;8373;48.110;11.522;2023-01-31T11:36:12;4.80;65.20
16521;DHT22;8373;48.110;11.522;2023-01-31T11:38:39;4.80;65.30
16521;DHT22;8373;48.110;11.522;2023-01-31T11:41:30;4.90;65.40
16521;DHT22;8373;48.110;11.522;2023-01-31T11:44:12;5.10;65.60
16521;DHT22;8373;48.110;11.522;2023-01-31T11:46:47;5.20;65.30
16521;DHT22;8373;48.110;11.522;2023-01-31T11:49:30;5.20;64.80
16521;DHT22;8373;48.110;11.522;2023-01-31T11:52:01;5.10;64.70
16521;DHT22;8373;48.110;11.522;2023-01-31T11:54:31;5.10;65.30
16521;DHT22;8373;48.110;11.522;2023-01-31T11:57:00;5.10;65.50
16521;DHT22;8373;48.110;11.522;2023-01-31T11:59:28;5.20;65.70
16521;DHT22;8373;48.110;11.522;2023-01-31T12:01:58;5.30;65.30
16521;DHT22;8373;48.110;11.522;2023-01-31T12:04:31;5.40;65.30
16521;DHT22;8373;48.110;11.522;2023-01-31T12:07:02;5.50;65.30
16521;DHT22;8373;48.110;11.522;2023-01-31T12:09:39;5.60;64.70
16521;DHT22;8373;48.110;11.522;2023-01-31T12:12:21;5.60;64.30
16521;DHT22;8373;48.110;11.522;2023-01-31T12:14:49;5.50;64.10
16521;DHT22;8373;48.110;11.522;2023-01-31T12:17:17;5.50;64.00
16521;DHT22;8373;48.110;11.522;2023-01-31T12:19:56;5.60;64.30
16521;DHT22;8373;48.110;11.522;2023-01-31T12:22:30;5.40;63.80
16521;DHT22;8373;48.110;11.522;2023-01-31T12:25:06;5.50;64.20
16521;DHT22;8373;48.110;11.522;2023-01-31T12:27:46;5.40;64.10
16521;DHT22;8373;48.110;11.522;2023-01-31T12:30:33;5.50;64.30
16521;DHT22;8373;48.110;11.522;2023-01-31T12:33:17;5.30;64.20
16521;DHT22;8373;48.110;11.522;2023-01-31T12:36:01;5.20;64.60
16521;DHT22;8373;48.110;11.522;2023-01-31T12:38:47;5.40;70.60
16521;DHT22;8373;48.110;11.522;2023-01-31T12:41:25;5.80;74.40
16521;DHT22;8373;48.110;11.522;2023-01-31T12:44:06;6.20;72.80
16521;DHT22;8373;48.110;11.522;2023-01-31T12:46:50;6.40;67.60
16521;DHT22;8373;48.110;11.522;2023-01-31T12:49:33;6.30;64.60
16521;DHT22;8373;48.110;11.522;2023-01-31T12:52:11;6.10;63.50
16521;DHT22;8373;48.110;11.522;2023-01-31T12:54:52;6.00;63.50
16521;DHT22;8373;48.110;11.522;2023-01-31T12:57:32;5.90;64.10
16521;DHT22;8373;48.110;11.522;2023-01-31T13:00:20;5.90;64.10
16521;DHT22;8373;48.110;11.522;2023-01-31T13:03:00;5.80;64.30
16521;DHT22;8373;48.110;11.522;2023-01-31T13:05:33;5.80;63.90
16521;DHT22;8373;48.110;11.522;2023-01-31T13:08:11;6.00;64.10
16521;DHT22;8373;48.110;11.522;2023-01-31T13:10:44;6.30;64.50
16521;DHT22;8373;48.110;11.522;2023-01-31T13:13:16;6.60;63.60
16521;DHT22;8373;48.110;11.522;2023-01-31T13:15:48;6.80;62.70
16521;DHT22;8373;48.110;11.522;2023-01-31T13:18:17;6.90;61.50
16521;DHT22;8373;48.110;11.522;2023-01-31T13:20:49;6.90;61.20
16521;DHT22;8373;48.110;11.522;2023-01-31T13:23:22;6.80;60.90
16521;DHT22;8373;48.110;11.522;2023-01-31T13:25:58;6.80;61.10
16521;DHT22;8373;48.110;11.522;2023-01-31T13:28:30;6.90;61.20
16521;DHT22;8373;48.110;11.522;2023-01-31T13:31:02;6.90;60.70
16521;DHT22;8373;48.110;11.522;2023-01-31T13:33:33;6.90;63.00
16521;DHT22;8373;48.110;11.522;2023-01-31T13:36:10;6.70;61.60
16521;DHT22;8373;48.110;11.522;2023-01-31T13:38:43;6.60;61.60
16521;DHT22;8373;48.110;11.522;2023-01-31T13:41:18;6.60;62.20
16521;DHT22;8373;48.110;11.522;2023-01-31T13:43:46;6.60;62.10
16521;DHT22;8373;48.110;11.522;2023-01-31T13:46:17;6.50;61.80
16521;DHT22;8373;48.110;11.522;2023-01-31T13:48:48;6.30;61.50
16521;DHT22;8373;48.110;11.522;2023-01-31T13:51:20;6.20;61.70
16521;DHT22;8373;48.110;11.522;2023-01-31T13:53:53;6.10;62.30
16521;DHT22;8373;48.110;11.522;2023-01-31T13:56:24;6.00;62.80
16521;DHT22;8373;48.110;11.522;2023-01-31T13:58:53;5.90;63.00
16521;DHT22;8373;48.110;11.522;2023-01-31T14:01:22;5.90;63.40
16521;DHT22;8373;48.110;11.522;2023-01-31T14:04:28;5.80;63.50
16521;DHT22;8373;48.110;11.522;2023-01-31T14:13:23;5.70;64.50
16521;DHT22;8373;48.110;11.522;2023-01-31T14:15:54;5.70;64.40
16521;DHT22;8373;48.110;11.522;2023-01-31T14:18:35;5.70;64.20
16521;DHT22;8373;48.110;11.522;2023-01-31T14:24:19;5.70;64.50
16521;DHT22;8373;48.110;11.522;2023-01-31T14:26:51;5.60;64.30
16521;DHT22;8373;48.110;11.522;2023-01-31T14:29:21;5.60;64.40
16521;DHT22;8373;48.110;11.522;2023-01-31T14:31:51;5.60;64.20
16521;DHT22;8373;48.110;11.522;2023-01-31T14:34:21;5.70;63.90
16521;DHT22;8373;48.110;11.522;2023-01-31T14:36:59;5.70;63.70
16521;DHT22;8373;48.110;11.522;2023-01-31T14:39:49;5.50;62.80
16521;DHT22;8373;48.110;11.522;2023-01-31T14:42:54;5.50;63.20
16521;DHT22;8373;48.110;11.522;2023-01-31T14:45:42;5.60;63.20
16521;DHT22;8373;48.110;11.522;2023-01-31T14:48:19;5.60;62.70
16521;DHT22;8373;48.110;11.522;2023-01-31T14:51:08;5.60;62.80
16521;DHT22;8373;48.110;11.522;2023-01-31T14:54:03;5.50;62.40
16521;DHT22;8373;48.110;11.522;2023-01-31T14:57:10;5.50;62.50
16521;DHT22;8373;48.110;11.522;2023-01-31T14:59:46;5.40;62.30
16521;DHT22;8373;48.110;11.522;2023-01-31T15:02:39;5.40;62.40
16521;DHT22;8373;48.110;11.522;2023-01-31T15:05:11;5.40;62.30
16521;DHT22;8373;48.110;11.522;2023-01-31T15:07:57;5.40;62.50
16521;DHT22;8373;48.110;11.522;2023-01-31T15:10:53;5.40;62.60
16521;DHT22;8373;48.110;11.522;2023-01-31T15:13:41;5.30;62.40
16521;DHT22;8373;48.110;11.522;2023-01-31T15:16:17;5.30;62.70
16521;DHT22;8373;48.110;11.522;2023-01-31T15:18:48;5.40;63.00
16521;DHT22;8373;48.110;11.522;2023-01-31T15:21:21;5.50;63.20
16521;DHT22;8373;48.110;11.522;2023-01-31T15:23:49;5.50;62.80
16521;DHT22;8373;48.110;11.522;2023-01-31T15:26:18;5.50;63.10
16521;DHT22;8373;48.110;11.522;2023-01-31T15:28:46;5.60;63.00
16521;DHT22;8373;48.110;11.522;2023-01-31T15:31:19;5.50;62.70
16521;DHT22;8373;48.110;11.522;2023-01-31T15:33:50;5.40;62.50
16521;DHT22;8373;48.110;11.522;2023-01-31T15:36:24;5.30;62.80
16521;DHT22;8373;48.110;11.522;2023-01-31T15:38:54;5.30;63.30
16521;DHT22;8373;48.110;11.522;2023-01-31T15:41:23;5.20;63.20
16521;DHT22;8373;48.110;11.522;2023-01-31T15:43:52;5.10;63.30
16521;DHT22;8373;48.110;11.522;2023-01-31T15:46:26;5.10;63.60
16521;DHT22;8373;48.110;11.522;2023-01-31T15:48:55;5.10;63.80
16521;DHT22;8373;48.110;11.522;2023-01-31T15:51:22;5.10;63.50
16521;DHT22;8373;48.110;11.522;2023-01-31T15:53:59;5.20;63.80
16521;DHT22;8373;48.110;11.522;2023-01-31T15:56:27;5.20;63.90
16521;DHT22;8373;48.110;11.522;2023-01-31T15:58:55;5.10;63.70
16521;DHT22;8373;48.110;11.522;2023-01-31T16:01:23;5.10;63.80
16521;DHT22;8373;48.110;11.522;2023-01-31T16:03:57;5.10;63.60
16521;DHT22;8373;48.110;11.522;2023-01-31T16:06:26;5.10;63.60
16521;DHT22;8373;48.110;11.522;2023-01-31T16:08:55;5.10;63.60
16521;DHT22;8373;48.110;11.522;2023-01-31T16:11:23;5.00;63.30
16521;DHT22;8373;48.110;11.522;2023-01-31T16:13:51;5.00;63.60
16521;DHT22;8373;48.110;11.522;2023-01-31T16:16:20;4.90;63.60
16521;DHT22;8373;48.110;11.522;2023-01-31T16:18:49;4.90;63.80
16521;DHT22;8373;48.110;11.522;2023-01-31T16:21:26;4.90;64.00
16521;DHT22;8373;48.110;11.522;2023-01-31T16:24:00;4.90;64.30
16521;DHT22;8373;48.110;11.522;2023-01-31T16:26:31;4.90;64.30
16521;DHT22;8373;48.110;11.522;2023-01-31T16:29:06;5.00;64.30